Time;durP1;ratioP1;P1;durP2;ratioP2;P2;SDS_P1;SDS_P2;PMS_P1;PMS_P2;Temp;Humidity;BMP_temperature;BMP_pressure;BME280_temperature;BME280_humidity;BME280_pressure;Samples;Min_cycle;Max_cycle;Signal;HPM_P1;HPM_P2
2023/10/17 00:01:21;;;;;;;2.85;2.00;;;;;;;11.52;52.94;98824.66;4989928;28;20231;-59
2023/10/17 00:03:47;;;;;;;4.47;2.40;;;;;;;11.56;52.08;98818.34;4989748;28;20226;-59
2023/10/17 00:06:22;;;;;;;3.72;2.00;;;;;;;11.55;51.55;98799.38;4989654;28;20231;-59
2023/10/17 00:08:50;;;;;;;3.45;2.22;;;;;;;11.51;51.11;98778.97;5010775;28;20192;-59
2023/10/17 00:11:17;;;;;;;4.25;2.05;;;;;;;11.18;52.15;98789.78;5028978;28;20229;-59
2023/10/17 00:13:45;;;;;;;4.22;1.90;;;;;;;11.03;53.03;98801.09;4989178;28;20238;-59
2023/10/17 00:16:17;;;;;;;3.38;2.38;;;;;;;11.00;53.25;98805.66;4989461;28;20678;-59
2023/10/17 00:18:43;;;;;;;7.85;2.30;;;;;;;10.78;53.23;98771.69;4999802;28;20294;-59
2023/10/17 00:21:16;;;;;;;4.53;2.08;;;;;;;10.45;54.35;98782.41;5008948;28;20309;-59
2023/10/17 00:23:42;;;;;;;8.80;2.42;;;;;;;10.75;53.76;98805.56;5009095;28;20219;-59
2023/10/17 00:26:12;;;;;;;2.65;1.88;;;;;;;10.90;53.54;98801.97;5009032;28;20681;-60
2023/10/17 00:28:38;;;;;;;2.97;2.17;;;;;;;10.72;53.55;98764.31;5009002;28;20206;-59
2023/10/17 00:31:04;;;;;;;4.22;1.85;;;;;;;10.58;54.55;98793.69;5008839;28;20197;-59
2023/10/17 00:33:32;;;;;;;4.95;2.38;;;;;;;10.18;55.32;98763.44;5008909;28;20329;-59
2023/10/17 00:35:59;;;;;;;3.55;2.17;;;;;;;10.37;55.58;98797.59;5008773;28;20195;-59
2023/10/17 00:38:29;;;;;;;4.00;2.00;;;;;;;10.60;55.20;98799.59;5008742;28;20275;-59
2023/10/17 00:40:56;;;;;;;3.25;2.35;;;;;;;10.22;55.90;98764.09;5008751;28;20504;-59
2023/10/17 00:43:24;;;;;;;2.30;2.10;;;;;;;10.05;56.80;98759.91;5008625;28;20215;-59
2023/10/17 00:45:49;;;;;;;3.38;1.88;;;;;;;10.21;57.30;98804.63;5046974;28;20186;-59
2023/10/17 00:48:18;;;;;;;4.57;2.28;;;;;;;10.04;56.97;98783.31;5048288;28;20241;-59
2023/10/17 00:50:47;;;;;;;2.90;1.92;;;;;;;10.00;56.33;98799.88;5048283;28;20204;-59
2023/10/17 00:53:14;;;;;;;4.40;1.83;;;;;;;9.83;56.19;98771.63;5107992;28;20180;-59
2023/10/17 00:55:49;;;;;;;1.73;1.63;;;;;;;9.64;56.01;98760.72;5110965;28;20500;-59
2023/10/17 00:58:14;;;;;;;2.70;1.60;;;;;;;9.88;55.62;98760.06;5111251;28;20167;-59
2023/10/17 01:00:45;;;;;;;2.45;1.58;;;;;;;10.00;53.78;98771.44;5110924;28;20171;-59
2023/10/17 01:03:10;;;;;;;2.00;1.40;;;;;;;10.21;53.92;98790.88;5111053;28;20212;-59
2023/10/17 01:06:21;;;;;;;2.58;1.80;;;;;;;10.17;53.80;98797.16;5111131;28;20217;-59
2023/10/17 01:08:47;;;;;;;2.00;1.55;;;;;;;10.21;53.24;98783.13;5110674;28;20574;-59
2023/10/17 01:11:20;;;;;;;1.95;1.80;;;;;;;10.32;53.31;98791.03;5111077;28;20256;-59
2023/10/17 01:13:52;;;;;;;3.20;1.85;;;;;;;10.37;53.08;98797.59;5110798;28;20565;-59
2023/10/17 01:16:19;;;;;;;8.18;3.65;;;;;;;10.21;52.91;98765.81;5111149;28;20175;-59
2023/10/17 01:18:45;;;;;;;28.30;14.75;;;;;;;10.23;53.11;98760.56;5111111;28;20538;-59
2023/10/17 01:21:19;;;;;;;25.92;15.55;;;;;;;10.44;52.96;98788.53;5111293;28;20187;-59
2023/10/17 01:23:46;;;;;;;10.15;7.32;;;;;;;10.40;52.67;98778.47;5110868;28;20207;-59
2023/10/17 01:26:20;;;;;;;5.60;2.45;;;;;;;10.51;52.60;98786.41;5110986;28;20179;-59
2023/10/17 01:28:50;;;;;;;2.00;1.90;;;;;;;10.47;52.71;98765.06;5111225;28;20198;-60
2023/10/17 01:31:22;;;;;;;1.77;1.50;;;;;;;10.69;52.42;98793.00;5111158;28;20657;-59
2023/10/17 01:33:51;;;;;;;3.28;1.73;;;;;;;10.57;52.02;98760.13;5088008;28;20188;-59
2023/10/17 01:36:17;;;;;;;1.70;1.60;;;;;;;10.63;52.72;98799.38;5088078;28;20292;-59
2023/10/17 01:38:43;;;;;;;2.35;1.48;;;;;;;10.58;52.92;98798.84;5087948;28;20192;-59
2023/10/17 01:41:12;;;;;;;1.55;1.38;;;;;;;10.47;52.93;98782.31;5087971;28;20662;-59
2023/10/17 01:43:45;;;;;;;3.20;1.40;;;;;;;10.27;53.12;98755.09;5087864;28;20251;-59
2023/10/17 01:46:15;;;;;;;6.55;2.00;;;;;;;10.48;53.30;98791.75;5088004;28;20295;-59
2023/10/17 01:48:46;;;;;;;2.33;1.67;;;;;;;10.29;53.31;98780.88;5087767;28;20554;-59
2023/10/17 01:51:14;;;;;;;1.98;1.50;;;;;;;9.92;54.12;98758.16;5087769;28;20350;-59
2023/10/17 01:53:40;;;;;;;1.83;1.70;;;;;;;10.17;54.23;98807.50;5087820;28;20200;-59
2023/10/17 01:56:13;;;;;;;2.80;1.70;;;;;;;10.08;54.45;98790.78;5087769;28;20619;-59
2023/10/17 01:58:38;;;;;;;2.75;1.70;;;;;;;10.15;54.84;98809.34;5087673;28;20250;-59
2023/10/17 02:01:11;;;;;;;1.63;1.52;;;;;;;9.89;55.38;98794.53;5087680;28;20203;-59
2023/10/17 02:03:37;;;;;;;2.17;1.55;;;;;;;9.79;55.96;98783.06;5087743;28;20192;-59
2023/10/17 02:06:13;;;;;;;3.15;1.50;;;;;;;9.82;56.45;98793.22;5089418;28;20752;-59
2023/10/17 02:08:39;;;;;;;2.85;1.92;;;;;;;9.67;56.15;98764.88;5031157;28;20191;-59
2023/10/17 02:11:08;;;;;;;2.38;2.17;;;;;;;9.67;56.42;98764.88;5031246;28;20190;-59
2023/10/17 02:13:35;;;;;;;2.40;1.80;;;;;;;9.79;56.61;98798.56;5030884;28;20234;-59
2023/10/17 02:16:00;;;;;;;2.20;2.05;;;;;;;9.62;57.21;98797.91;5031203;28;20247;-59
2023/10/17 02:18:26;;;;;;;4.70;1.92;;;;;;;9.52;57.92;98802.78;5031065;28;20736;-59
2023/10/17 02:20:51;;;;;;;2.40;2.20;;;;;;;9.35;58.51;98778.84;5031298;28;20652;-59
2023/10/17 02:23:20;;;;;;;3.35;1.80;;;;;;;8.85;59.63;98758.47;5030979;28;20198;-60
2023/10/17 02:25:46;;;;;;;2.55;1.88;;;;;;;9.00;60.75;98803.25;5030943;28;20182;-59
2023/10/17 02:28:11;;;;;;;2.13;1.80;;;;;;;9.03;61.00;98793.56;5030834;28;20183;-59
2023/10/17 02:30:37;;;;;;;1.90;1.75;;;;;;;9.19;61.40;98796.97;5030889;28;20192;-60
2023/10/17 02:33:11;;;;;;;2.63;1.80;;;;;;;8.91;62.37;98758.13;5010773;28;20285;-59
2023/10/17 02:35:40;;;;;;;1.95;1.73;;;;;;;9.15;62.97;98785.13;5017214;28;20212;-59
2023/10/17 02:38:06;;;;;;;2.05;1.95;;;;;;;9.08;63.71;98770.91;5030775;28;20225;-59
2023/10/17 02:40:38;;;;;;;2.10;2.00;;;;;;;8.98;65.57;98774.13;5030629;28;20221;-59
2023/10/17 02:43:03;;;;;;;2.15;1.85;;;;;;;9.20;64.66;98769.41;5030656;28;20197;-59
2023/10/17 02:45:29;;;;;;;6.03;2.35;;;;;;;9.53;64.14;98804.44;5043847;28;20679;-59
2023/10/17 02:47:56;;;;;;;2.13;1.98;;;;;;;9.52;65.43;98812.28;5070376;28;20300;-59
2023/10/17 02:53:00;;;;;;;4.18;2.75;;;;;;;9.42;67.68;98821.47;5070246;28;20217;-58
2023/10/17 02:55:26;;;;;;;3.63;2.58;;;;;;;9.48;67.37;98816.78;5070335;28;20312;-59
2023/10/17 02:57:52;;;;;;;2.80;2.60;;;;;;;9.36;68.49;98796.81;5050139;28;20668;-58
2023/10/17 03:00:34;;;;;;;4.72;2.60;;;;;;;9.16;70.68;98776.50;5050114;28;20186;-59
2023/10/17 03:02:59;;;;;;;3.20;2.60;;;;;;;9.40;70.99;98806.06;5052972;28;20232;-59
2023/10/17 03:05:27;;;;;;;3.20;2.90;;;;;;;9.29;72.34;98816.19;5090448;28;20701;-59
2023/10/17 03:07:53;;;;;;;5.30;2.70;;;;;;;9.26;72.37;98795.69;5090266;28;20176;-59
2023/10/17 03:10:20;;;;;;;3.00;2.65;;;;;;;9.12;72.75;98793.06;5090303;28;20609;-59
2023/10/17 03:13:01;;;;;;;2.72;2.50;;;;;;;9.34;71.53;98790.09;5090074;28;20208;-59
2023/10/17 03:15:29;;;;;;;3.00;2.65;;;;;;;9.11;71.54;98786.25;5090196;28;20199;-59
2023/10/17 03:18:00;;;;;;;2.75;2.30;;;;;;;8.78;72.53;98769.22;5088973;28;20638;-58
2023/10/17 03:20:36;;;;;;;2.85;2.33;;;;;;;9.18;71.81;98803.03;5090008;28;20181;-59
2023/10/17 03:23:08;;;;;;;3.40;2.45;;;;;;;9.27;71.14;98809.44;5090009;28;20188;-59
2023/10/17 03:25:37;;;;;;;2.80;2.10;;;;;;;9.31;69.76;98788.50;5089912;28;20179;-58
2023/10/17 03:28:08;;;;;;;2.35;2.10;;;;;;;9.06;69.17;98772.75;5089964;28;20346;-59
2023/10/17 03:30:34;;;;;;;3.63;2.05;;;;;;;9.04;69.25;98790.06;5089894;28;20204;-58
2023/10/17 03:35:26;;;;;;;1.77;1.60;;;;;;;8.65;68.32;98760.50;5102339;28;20184;-59
2023/10/17 03:37:54;;;;;;;4.85;2.15;;;;;;;8.51;66.41;98758.69;5069325;28;20193;-59
2023/10/17 03:42:54;;;;;;;4.05;1.70;;;;;;;8.61;65.77;98744.38;5069420;28;20192;-59
2023/10/17 03:47:53;;;;;;;2.67;1.73;;;;;;;8.35;67.10;98775.06;5069243;28;20244;-59
2023/10/17 03:50:32;;;;;;;1.83;1.70;;;;;;;8.35;66.96;98770.75;5069309;28;20185;-59
2023/10/17 03:53:15;;;;;;;1.80;1.70;;;;;;;8.32;66.63;98768.31;5069136;28;20259;-59
2023/10/17 03:55:48;;;;;;;1.58;1.48;;;;;;;8.30;65.63;98754.69;5069264;28;20177;-59
2023/10/17 03:58:57;;;;;;;4.00;1.52;;;;;;;8.37;65.17;98750.03;5069058;28;20286;-59
2023/10/17 04:01:07;;;;;;;2.20;2.00;;;;;;;8.51;65.08;98768.19;5026290;28;20200;-59
2023/10/17 04:03:34;;;;;;;1.88;1.63;;;;;;;8.65;64.97;98786.28;5029130;28;20284;-59
2023/10/17 04:08:37;;;;;;;1.80;1.70;;;;;;;8.73;64.20;98784.16;5043805;28;20193;-60
2023/10/17 04:11:17;;;;;;;3.90;1.80;;;;;;;8.64;64.33;98774.31;5068906;28;20192;-58
2023/10/17 04:13:49;;;;;;;1.73;1.63;;;;;;;8.46;64.29;98749.53;5068634;28;20217;-59
2023/10/17 04:16:22;;;;;;;2.22;1.83;;;;;;;8.35;65.27;98777.66;5068899;28;20197;-60
2023/10/17 04:18:59;;;;;;;2.40;1.55;;;;;;;8.22;65.58;98769.72;5069063;28;20200;-59
2023/10/17 04:23:55;;;;;;;2.15;1.90;;;;;;;8.42;65.65;98789.28;5067996;28;20651;-59
2023/10/17 04:26:34;;;;;;;2.88;2.03;;;;;;;8.25;65.63;98769.56;5068622;28;20188;-59
2023/10/17 04:29:11;;;;;;;2.53;2.17;;;;;;;8.39;65.74;98794.63;5068239;28;20272;-60
2023/10/17 04:31:39;;;;;;;2.63;1.70;;;;;;;8.25;65.55;98751.53;5076368;28;20229;-59
2023/10/17 04:34:09;;;;;;;4.03;2.28;;;;;;;8.38;65.72;98801.50;5111681;28;20190;-59
2023/10/17 04:36:37;;;;;;;3.45;1.77;;;;;;;8.32;65.82;98782.97;5111065;28;20207;-59
2023/10/17 04:39:19;;;;;;;2.03;1.80;;;;;;;8.34;65.88;98796.63;5110654;28;20179;-59
2023/10/17 04:44:17;;;;;;;1.83;1.73;;;;;;;8.15;66.23;98768.38;5111481;28;20172;-59
2023/10/17 04:49:35;;;;;;;1.92;1.73;;;;;;;7.98;67.41;98789.03;5111713;28;20510;-59
2023/10/17 04:52:18;;;;;;;1.92;1.75;;;;;;;7.92;68.28;98811.72;5111468;28;20234;-59
2023/10/17 04:54:44;;;;;;;2.13;1.90;;;;;;;8.05;67.95;98820.47;5111750;28;20276;-59
2023/10/17 04:57:16;;;;;;;3.08;2.58;;;;;;;7.97;67.33;98782.22;5111673;28;20180;-60
2023/10/17 04:59:43;;;;;;;2.47;2.28;;;;;;;7.89;67.62;98774.06;5111602;28;20248;-58
2023/10/17 06:19:15;;;;;;;4.07;2.10;;;;;;;9.63;61.33;98808.97;5031535;28;20668;-60
2023/10/17 06:27:51;;;;;;;4.38;1.85;;;;;;;9.95;59.86;98818.25;5031351;28;20657;-60
2023/10/17 06:35:20;;;;;;;2.00;1.38;;;;;;;10.37;58.99;98841.56;5031075;28;20641;-57
2023/10/17 06:37:46;;;;;;;2.45;1.90;;;;;;;10.65;58.61;98864.81;5032097;28;20174;-60
2023/10/17 06:40:15;;;;;;;7.97;2.17;;;;;;;10.48;58.53;98821.03;5113928;28;20237;-61
2023/10/17 06:42:48;;;;;;;2.13;1.52;;;;;;;10.85;58.67;98863.59;5113869;28;20175;-59
2023/10/17 06:45:20;;;;;;;1.70;1.60;;;;;;;11.01;57.90;98859.94;5114025;28;20175;-59
2023/10/17 06:47:49;;;;;;;2.53;1.52;;;;;;;11.16;58.03;98853.78;5070495;28;20272;-60
2023/10/17 06:55:21;;;;;;;7.45;3.38;;;;;;;11.42;57.73;98833.97;5070557;28;20567;-59
2023/10/17 06:57:50;;;;;;;10.90;5.05;;;;;;;11.79;58.04;98851.41;5070280;28;20185;-59
2023/10/17 07:00:24;;;;;;;15.98;7.03;;;;;;;12.07;58.07;98869.38;5070455;28;20254;-60
2023/10/17 07:02:50;;;;;;;15.77;7.82;;;;;;;12.02;57.89;98830.75;5070459;28;20235;-60
2023/10/17 07:05:22;;;;;;;20.58;8.18;;;;;;;12.40;57.20;98880.03;5070390;28;20216;-60
2023/10/17 07:07:53;;;;;;;18.05;8.00;;;;;;;12.49;56.89;98882.03;5070548;28;20188;-60
2023/10/17 07:13:32;;;;;;;15.73;7.82;;;;;;;12.73;56.02;98880.31;5069959;28;20685;-60
2023/10/17 07:16:04;;;;;;;10.70;5.68;;;;;;;12.78;55.47;98878.25;5070080;28;20188;-59
2023/10/17 07:23:43;;;;;;;10.50;4.80;;;;;;;12.95;55.38;98876.13;5113247;28;20180;-60
2023/10/17 07:26:35;;;;;;;12.50;6.25;;;;;;;12.78;55.38;98847.09;5113094;28;20188;-60
2023/10/17 07:29:05;;;;;;;21.65;6.78;;;;;;;13.03;55.25;98870.41;5112922;28;20241;-60
2023/10/17 07:31:31;;;;;;;14.63;5.93;;;;;;;12.96;54.46;98840.63;5112785;28;20171;-60
2023/10/17 07:34:16;;;;;;;12.63;4.90;;;;;;;13.19;54.13;98882.19;5112691;28;20244;-60
2023/10/17 07:36:43;;;;;;;15.70;5.18;;;;;;;13.02;54.27;98837.56;5112937;28;20642;-60
2023/10/17 07:41:53;;;;;;;12.52;4.55;;;;;;;13.27;53.77;98871.25;5112880;28;20183;-60
2023/10/17 07:44:22;;;;;;;15.98;5.00;;;;;;;13.32;53.71;98864.78;5112667;28;20263;-59
2023/10/17 07:46:50;;;;;;;10.98;4.95;;;;;;;13.31;52.91;98846.72;5112719;28;20183;-60
2023/10/17 07:49:26;;;;;;;13.25;4.43;;;;;;;13.53;52.98;98873.63;5112621;28;20573;-59
2023/10/17 07:51:53;;;;;;;9.50;4.47;;;;;;;13.56;52.29;98852.59;5112593;28;20171;-59
2023/10/17 07:54:19;;;;;;;15.63;4.43;;;;;;;13.41;52.81;98866.72;5112617;28;20176;-59
2023/10/17 07:56:50;;;;;;;7.68;4.38;;;;;;;13.08;53.33;98831.94;5112235;28;20203;-59
2023/10/17 07:59:30;;;;;;;12.02;4.10;;;;;;;13.25;52.50;98827.16;5112268;28;20634;-59
2023/10/17 08:02:00;;;;;;;15.20;4.00;;;;;;;13.47;52.27;98826.47;5112198;28;20588;-59
2023/10/17 08:04:36;;;;;;;19.23;4.28;;;;;;;13.80;53.15;98860.34;5111678;28;20180;-59
2023/10/17 08:07:03;;;;;;;18.95;4.13;;;;;;;13.90;52.98;98858.72;5112186;28;20179;-59
2023/10/17 08:09:36;;;;;;;9.35;4.40;;;;;;;13.98;53.17;98861.56;5111948;28;20718;-59
2023/10/17 08:12:05;;;;;;;10.50;4.28;;;;;;;13.88;52.92;98827.63;5112194;28;20662;-59
2023/10/17 08:14:45;;;;;;;9.13;3.70;;;;;;;14.03;52.25;98823.88;5112332;28;20195;-60
2023/10/17 08:17:11;;;;;;;8.20;3.88;;;;;;;14.22;52.60;98851.94;5089074;28;20596;-59
2023/10/17 08:22:25;;;;;;;7.68;3.90;;;;;;;13.92;52.61;98803.03;5089298;28;20199;-59
2023/10/17 08:24:54;;;;;;;7.88;3.72;;;;;;;14.02;52.58;98810.97;5089015;28;20181;-59
2023/10/17 08:29:57;;;;;;;9.93;4.05;;;;;;;14.04;53.54;98814.28;5089127;28;20595;-59
2023/10/17 08:37:45;;;;;;;19.73;4.88;;;;;;;14.08;52.65;98797.50;5089207;28;20584;-59
2023/10/17 08:43:15;;;;;;;13.35;4.50;;;;;;;14.20;52.73;98793.97;5088606;28;20670;-59
2023/10/17 08:45:41;;;;;;;13.45;4.30;;;;;;;14.18;53.70;98791.47;5088792;28;20633;-60
2023/10/17 08:48:11;;;;;;;9.35;4.15;;;;;;;14.29;53.92;98790.69;5098076;28;20249;-60
2023/10/17 08:50:40;;;;;;;6.97;4.13;;;;;;;14.26;54.32;98775.28;5111401;28;20171;-59
2023/10/17 08:53:13;;;;;;;5.50;3.67;;;;;;;14.20;54.85;98775.75;5111336;28;20203;-60
2023/10/17 08:55:40;;;;;;;8.20;3.65;;;;;;;14.49;55.07;98792.56;5111652;28;20228;-58
2023/10/17 08:58:08;;;;;;;8.55;3.90;;;;;;;14.69;54.17;98810.88;5111407;28;20198;-59
2023/10/17 09:01:10;;;;;;;4.45;3.40;;;;;;;14.69;53.89;98799.66;5111280;28;20321;-59
2023/10/17 09:03:36;;;;;;;6.45;3.50;;;;;;;14.84;53.88;98801.03;5085365;28;20196;-59
2023/10/17 09:11:14;;;;;;;6.90;3.90;;;;;;;14.52;55.88;98782.72;5088522;28;20204;-59
2023/10/17 09:16:14;;;;;;;8.32;3.72;;;;;;;14.73;55.74;98775.00;5092200;28;20224;-59
2023/10/17 09:18:48;;;;;;;4.72;3.63;;;;;;;14.74;55.43;98776.63;5092455;28;20184;-59
2023/10/17 09:21:14;;;;;;;5.10;3.72;;;;;;;14.61;56.05;98775.97;5092625;28;20552;-59
2023/10/17 09:23:41;;;;;;;5.78;3.53;;;;;;;14.28;56.67;98763.81;5092510;28;20196;-58
2023/10/17 09:26:10;;;;;;;4.15;3.63;;;;;;;14.14;56.80;98737.16;5092316;28;20180;-59
2023/10/17 09:28:39;;;;;;;4.60;3.72;;;;;;;14.17;57.87;98755.97;5092309;28;20188;-59
2023/10/17 09:31:07;;;;;;;10.20;4.13;;;;;;;14.28;57.01;98744.78;5092187;28;20188;-59
2023/10/17 09:33:43;;;;;;;9.55;6.30;;;;;;;14.46;56.58;98740.72;5094318;28;20207;-60
2023/10/17 09:36:09;;;;;;;9.73;3.60;;;;;;;14.71;56.42;98730.00;5115266;28;20403;-60
2023/10/17 09:38:41;;;;;;;4.95;4.07;;;;;;;15.10;55.48;98750.25;5115178;28;20258;-59
2023/10/17 09:41:08;;;;;;;7.07;3.70;;;;;;;15.37;54.79;98745.41;5115209;28;20343;-59
2023/10/17 09:43:36;;;;;;;10.23;3.55;;;;;;;15.60;53.89;98736.50;5115155;28;20210;-58
2023/10/17 09:46:03;;;;;;;5.50;3.15;;;;;;;15.65;53.50;98705.66;5071739;28;20678;-58
2023/10/17 09:48:43;;;;;;;7.57;3.45;;;;;;;15.71;52.95;98692.91;5071963;28;20272;-58
2023/10/17 09:51:22;;;;;;;3.70;3.15;;;;;;;16.01;52.29;98726.00;5071902;28;20262;-58
2023/10/17 09:53:53;;;;;;;5.72;3.60;;;;;;;15.98;51.88;98715.84;5071338;28;20824;-61
2023/10/17 09:56:22;;;;;;;4.93;3.20;;;;;;;15.75;52.91;98691.69;5071746;28;20177;-59
2023/10/17 09:58:52;;;;;;;5.10;3.03;;;;;;;15.70;53.05;98682.59;5071571;28;20189;-59
2023/10/17 10:01:23;;;;;;;10.25;3.20;;;;;;;15.94;53.15;98693.56;5071358;28;20630;-58
2023/10/17 10:03:52;;;;;;;7.03;2.90;;;;;;;16.08;53.28;98706.25;5071350;28;20272;-58
2023/10/17 10:06:25;;;;;;;6.07;3.13;;;;;;;16.15;53.30;98697.75;5071547;28;20790;-58
2023/10/17 10:08:55;;;;;;;6.35;3.28;;;;;;;16.18;53.33;98683.63;5071443;28;20180;-58
2023/10/17 10:11:21;;;;;;;6.97;3.20;;;;;;;16.36;52.23;98690.69;5051266;28;20544;-59
2023/10/17 10:14:11;;;;;;;6.22;3.83;;;;;;;16.32;52.31;98663.16;5051122;28;20228;-59
2023/10/17 10:16:54;;;;;;;4.43;3.67;;;;;;;16.31;52.39;98652.84;5051345;28;20279;-59
2023/10/17 10:19:23;;;;;;;3.33;3.03;;;;;;;16.58;51.91;98669.59;5051447;28;20189;-57
2023/10/17 10:21:57;;;;;;;4.15;2.92;;;;;;;16.64;51.61;98662.97;5051169;28;20193;-58
2023/10/17 10:24:28;;;;;;;6.60;2.83;;;;;;;16.67;51.52;98657.50;5086403;28;20187;-59
2023/10/17 10:29:44;;;;;;;6.22;3.30;;;;;;;17.00;50.60;98675.34;5091500;28;20180;-59
2023/10/17 10:32:25;;;;;;;13.23;3.42;;;;;;;17.01;50.64;98661.31;5091348;28;20207;-59
2023/10/17 10:34:51;;;;;;;2.95;2.65;;;;;;;16.87;50.66;98628.59;5091638;28;20207;-59
2023/10/17 10:37:20;;;;;;;12.13;3.80;;;;;;;16.91;50.39;98618.69;5091145;28;20219;-59
2023/10/17 10:40:22;;;;;;;5.13;4.05;;;;;;;17.18;49.95;98650.16;5091317;28;20329;-59
2023/10/17 10:42:52;;;;;;;9.73;4.20;;;;;;;17.07;49.63;98629.38;5106951;28;20382;-59
2023/10/17 10:48:17;;;;;;;6.40;3.88;;;;;;;17.11;49.42;98617.69;5113880;28;20193;-58
2023/10/17 10:50:44;;;;;;;8.25;4.15;;;;;;;17.22;49.95;98625.38;5090952;28;20821;-59
2023/10/17 10:53:29;;;;;;;6.63;3.47;;;;;;;17.16;49.55;98637.25;5090695;28;20215;-59
2023/10/17 10:56:02;;;;;;;6.90;3.88;;;;;;;16.99;49.60;98613.59;5090918;28;20261;-59
2023/10/17 10:58:33;;;;;;;8.88;3.58;;;;;;;17.03;49.14;98601.88;5090908;28;20171;-59
2023/10/17 11:01:02;;;;;;;3.90;3.17;;;;;;;17.27;49.38;98618.78;5090871;28;20606;-59
2023/10/17 11:03:28;;;;;;;5.40;2.90;;;;;;;17.19;49.31;98586.44;5090760;28;20317;-59
2023/10/17 11:05:55;;;;;;;13.45;3.30;;;;;;;17.52;49.28;98626.03;5090746;28;20713;-59
2023/10/17 11:08:32;;;;;;;8.48;3.38;;;;;;;17.25;48.63;98586.69;5090549;28;20187;-60
2023/10/17 11:11:00;;;;;;;5.38;3.45;;;;;;;17.39;48.77;98596.75;5090665;28;20199;-58
2023/10/17 11:13:34;;;;;;;4.18;2.65;;;;;;;17.62;48.11;98620.75;5090387;28;20215;-59
2023/10/17 11:16:00;;;;;;;3.90;2.50;;;;;;;17.75;47.68;98626.47;5090609;28;20267;-59
2023/10/17 11:18:25;;;;;;;3.45;2.78;;;;;;;17.65;47.69;98599.50;5050136;28;20316;-58
2023/10/17 11:20:57;;;;;;;3.95;2.35;;;;;;;17.57;47.95;98622.97;5053455;28;20652;-60
2023/10/17 11:23:27;;;;;;;4.32;2.85;;;;;;;17.51;47.65;98616.53;5070085;28;20614;-58
2023/10/17 11:25:54;;;;;;;4.93;2.58;;;;;;;17.25;47.75;98578.03;5010263;28;20186;-59
2023/10/17 11:28:20;;;;;;;4.65;2.60;;;;;;;17.18;47.78;98577.75;5009999;28;20229;-59
2023/10/17 11:30:47;;;;;;;5.05;2.30;;;;;;;17.11;48.37;98568.84;5010254;28;20293;-59
2023/10/17 11:33:28;;;;;;;8.70;3.08;;;;;;;17.24;48.57;98597.28;5010157;28;20224;-59
2023/10/17 11:35:54;;;;;;;4.95;2.30;;;;;;;17.04;49.18;98566.94;5010276;28;20183;-59
2023/10/17 11:38:37;;;;;;;3.88;2.55;;;;;;;17.17;48.47;98575.28;5009381;28;20183;-59
2023/10/17 11:41:04;;;;;;;5.57;2.65;;;;;;;17.13;48.33;98550.41;5010119;28;20182;-58
2023/10/17 11:43:35;;;;;;;10.15;2.40;;;;;;;17.21;48.00;98553.13;5010061;28;20240;-59
2023/10/17 11:46:11;;;;;;;7.35;2.55;;;;;;;17.34;48.18;98574.53;5010033;28;20260;-59
2023/10/17 11:48:40;;;;;;;3.83;2.08;;;;;;;17.24;48.52;98558.88;5010014;28;20221;-58
2023/10/17 11:51:06;;;;;;;2.58;1.77;;;;;;;17.37;48.64;98575.06;5009887;28;20237;-59
2023/10/17 11:53:33;;;;;;;6.40;2.55;;;;;;;17.37;48.29;98563.81;5009768;28;20217;-59
2023/10/17 11:55:58;;;;;;;2.70;1.98;;;;;;;17.30;49.31;98567.94;5027843;28;20186;-59
2023/10/17 11:58:25;;;;;;;7.53;2.22;;;;;;;17.17;49.32;98554.38;5088337;28;20190;-59
2023/10/17 12:00:51;;;;;;;2.67;1.70;;;;;;;17.17;49.34;98551.75;5089672;28;20175;-60
2023/10/17 12:03:20;;;;;;;4.45;2.33;;;;;;;17.15;49.13;98545.84;5089566;28;20184;-60
2023/10/17 12:05:46;;;;;;;5.00;2.42;;;;;;;17.33;48.15;98585.97;5100877;28;20219;-60
2023/10/17 12:08:22;;;;;;;3.17;2.58;;;;;;;17.22;48.74;98566.06;5112253;28;20276;-59
2023/10/17 12:10:53;;;;;;;6.80;2.40;;;;;;;17.08;48.94;98558.66;5089156;28;20230;-59
2023/10/17 12:13:21;;;;;;;5.25;2.35;;;;;;;16.82;49.19;98522.81;5089037;28;20228;-59
2023/10/17 12:15:47;;;;;;;4.75;2.65;;;;;;;16.97;49.57;98539.72;5068814;28;20180;-60
2023/10/17 12:18:13;;;;;;;4.57;2.50;;;;;;;16.98;48.62;98529.13;5068817;28;20241;-59
2023/10/17 12:20:42;;;;;;;2.92;2.63;;;;;;;17.16;48.31;98555.34;5068936;28;20191;-59
2023/10/17 12:23:09;;;;;;;4.78;2.70;;;;;;;17.14;48.75;98546.81;5069014;28;20184;-59
2023/10/17 12:25:36;;;;;;;3.38;2.17;;;;;;;16.91;48.78;98511.53;5068185;28;20692;-59
2023/10/17 12:28:03;;;;;;;5.90;2.40;;;;;;;17.12;49.43;98546.13;5068511;28;20265;-59
2023/10/17 12:30:35;;;;;;;3.85;2.13;;;;;;;17.20;49.05;98531.38;5068575;28;20747;-59
2023/10/17 12:33:01;;;;;;;4.95;2.20;;;;;;;16.75;49.35;98488.59;5068456;28;20274;-58
2023/10/17 12:35:27;;;;;;;4.93;2.20;;;;;;;16.83;49.13;98509.63;5068468;28;20687;-59
2023/10/17 12:37:57;;;;;;;4.05;2.20;;;;;;;16.91;49.81;98525.41;5068703;28;20843;-59
2023/10/17 12:40:23;;;;;;;2.97;2.17;;;;;;;16.99;49.90;98529.94;5068514;28;20738;-59
2023/10/17 12:42:51;;;;;;;4.07;2.53;;;;;;;17.10;49.40;98520.13;5068646;28;20200;-59
2023/10/17 12:45:19;;;;;;;2.95;1.98;;;;;;;17.14;49.68;98531.13;5068604;28;20179;-59
2023/10/17 12:47:45;;;;;;;5.78;2.50;;;;;;;16.94;49.24;98498.16;5106904;28;20194;-59
2023/10/17 12:50:12;;;;;;;2.30;1.90;;;;;;;17.04;49.80;98510.25;5111313;28;20250;-59
2023/10/17 12:52:38;;;;;;;2.30;1.70;;;;;;;17.09;49.53;98517.66;5111293;28;20649;-59
2023/10/17 12:55:04;;;;;;;6.35;1.95;;;;;;;17.21;49.36;98508.66;5088524;28;20184;-59
2023/10/17 12:57:30;;;;;;;2.65;1.73;;;;;;;17.30;49.18;98515.63;5088643;28;20275;-58
2023/10/17 12:59:59;;;;;;;5.60;2.25;;;;;;;17.02;48.98;98475.56;5088603;28;20176;-58
2023/10/17 13:02:25;;;;;;;3.75;1.95;;;;;;;17.15;48.95;98498.78;5088565;28;20687;-59
2023/10/17 13:04:51;;;;;;;7.65;2.30;;;;;;;17.29;49.73;98521.84;5088630;28;20229;-59
2023/10/17 13:07:17;;;;;;;5.30;2.40;;;;;;;17.27;48.35;98502.84;5088345;28;20189;-59
2023/10/17 13:09:43;;;;;;;5.20;2.45;;;;;;;17.44;48.32;98521.25;5088530;28;20219;-58
2023/10/17 13:12:08;;;;;;;4.22;1.60;;;;;;;17.22;48.83;98481.53;5088218;28;20191;-58
2023/10/17 13:14:34;;;;;;;7.63;1.77;;;;;;;17.23;49.13;98478.78;5088266;28;20351;-58
2023/10/17 13:16:59;;;;;;;3.33;2.05;;;;;;;17.41;48.38;98498.00;5088412;28;20212;-58
2023/10/17 13:19:25;;;;;;;3.88;1.60;;;;;;;17.46;48.46;98511.47;5088335;28;20621;-59
2023/10/17 13:21:51;;;;;;;5.55;1.95;;;;;;;17.47;48.68;98515.72;5087797;28;20206;-59
2023/10/17 13:24:17;;;;;;;8.00;2.20;;;;;;;17.34;48.89;98507.38;5088351;28;20591;-59
2023/10/17 13:26:45;;;;;;;3.75;1.90;;;;;;;17.09;48.73;98491.50;5088041;28;20772;-59
2023/10/17 13:29:12;;;;;;;7.35;2.15;;;;;;;17.10;49.13;98488.75;5088074;28;20334;-58
2023/10/17 13:31:38;;;;;;;5.32;2.08;;;;;;;17.25;50.00;98507.41;5091578;28;20702;-59
2023/10/17 13:34:04;;;;;;;5.28;2.17;;;;;;;17.31;49.59;98504.22;5110951;28;20210;-59
2023/10/17 13:36:29;;;;;;;4.25;2.28;;;;;;;17.27;49.37;98500.25;5111039;28;20183;-60
2023/10/17 13:38:55;;;;;;;5.25;2.10;;;;;;;17.14;50.17;98484.88;5110878;28;20168;-58
2023/10/17 13:41:21;;;;;;;5.05;2.20;;;;;;;17.09;50.25;98484.47;5110628;28;20175;-58
2023/10/17 13:43:47;;;;;;;3.83;2.10;;;;;;;17.17;50.13;98495.06;5110696;28;20181;-59
2023/10/17 13:46:16;;;;;;;5.90;2.33;;;;;;;17.26;49.86;98498.59;5110858;28;20369;-60
2023/10/17 13:48:48;;;;;;;4.47;2.38;;;;;;;17.29;49.51;98508.75;5111018;28;20642;-58
2023/10/17 13:51:15;;;;;;;5.20;2.40;;;;;;;17.12;49.42;98491.22;5110960;28;20182;-59
2023/10/17 13:53:43;;;;;;;4.95;1.92;;;;;;;17.10;49.61;98494.00;5110633;28;20680;-59
2023/10/17 13:56:21;;;;;;;8.15;2.03;;;;;;;17.00;48.89;98471.44;5111093;28;20202;-61
2023/10/17 13:58:47;;;;;;;7.20;2.38;;;;;;;17.19;49.14;98506.19;5110645;28;20175;-59
2023/10/17 14:01:31;;;;;;;5.80;2.17;;;;;;;16.95;49.12;98471.88;5111425;28;20270;-59
2023/10/17 14:03:58;;;;;;;7.15;2.58;;;;;;;17.02;49.11;98488.63;5114804;28;20167;-59
2023/10/17 14:06:27;;;;;;;10.55;2.47;;;;;;;17.05;50.02;98500.59;5114479;28;20213;-59
2023/10/17 14:08:55;;;;;;;5.30;2.92;;;;;;;16.94;50.47;98487.69;5114501;28;20171;-59
2023/10/17 14:11:21;;;;;;;7.28;2.53;;;;;;;16.97;50.07;98488.22;5114597;28;20263;-59
2023/10/17 14:13:47;;;;;;;5.43;2.85;;;;;;;17.00;49.87;98489.75;5114494;28;20655;-59
2023/10/17 14:16:13;;;;;;;6.10;2.65;;;;;;;17.03;49.51;98495.50;5114553;28;20547;-58
2023/10/17 14:18:44;;;;;;;9.05;2.80;;;;;;;16.94;49.80;98478.06;5051603;28;20216;-58